sensor_id;sensor_type;location;lat;lon;timestamp;P1;durP1;ratioP1;P2;durP2;ratioP2
65896;SDS011;52677;50.898;10.854;2022-11-22T00:00:24;16.67;;;9.10;;
65896;SDS011;52677;50.898;10.854;2022-11-22T00:02:25;15.50;;;8.70;;
65896;SDS011;52677;50.898;10.854;2022-11-22T00:04:25;11.05;;;7.78;;
65896;SDS011;52677;50.898;10.854;2022-11-22T00:06:25;10.68;;;7.13;;
65896;SDS011;52677;50.898;10.854;2022-11-22T00:08:26;11.13;;;7.15;;
65896;SDS011;52677;50.898;10.854;2022-11-22T00:10:26;10.07;;;6.15;;
65896;SDS011;52677;50.898;10.854;2022-11-22T00:12:26;9.32;;;6.05;;
65896;SDS011;52677;50.898;10.854;2022-11-22T00:14:27;13.63;;;6.80;;
65896;SDS011;52677;50.898;10.854;2022-11-22T00:16:28;9.48;;;6.45;;
65896;SDS011;52677;50.898;10.854;2022-11-22T00:18:28;10.35;;;5.68;;
65896;SDS011;52677;50.898;10.854;2022-11-22T00:20:29;10.48;;;6.43;;
65896;SDS011;52677;50.898;10.854;2022-11-22T00:22:30;8.20;;;5.47;;
65896;SDS011;52677;50.898;10.854;2022-11-22T00:24:31;9.85;;;5.80;;
65896;SDS011;52677;50.898;10.854;2022-11-22T00:26:31;8.50;;;4.88;;
65896;SDS011;52677;50.898;10.854;2022-11-22T00:28:31;25.45;;;11.50;;
65896;SDS011;52677;50.898;10.854;2022-11-22T00:30:32;13.73;;;7.68;;
65896;SDS011;52677;50.898;10.854;2022-11-22T00:32:32;16.88;;;8.65;;
65896;SDS011;52677;50.898;10.854;2022-11-22T00:34:32;14.27;;;7.43;;
65896;SDS011;52677;50.898;10.854;2022-11-22T00:36:33;12.25;;;6.85;;
65896;SDS011;52677;50.898;10.854;2022-11-22T00:38:33;10.63;;;6.13;;
65896;SDS011;52677;50.898;10.854;2022-11-22T00:40:34;13.00;;;6.15;;
65896;SDS011;52677;50.898;10.854;2022-11-22T00:42:34;13.23;;;7.00;;
65896;SDS011;52677;50.898;10.854;2022-11-22T00:44:34;18.55;;;9.43;;
65896;SDS011;52677;50.898;10.854;2022-11-22T00:46:34;36.15;;;15.13;;
65896;SDS011;52677;50.898;10.854;2022-11-22T00:48:35;29.15;;;13.82;;
65896;SDS011;52677;50.898;10.854;2022-11-22T00:50:35;24.75;;;10.75;;
65896;SDS011;52677;50.898;10.854;2022-11-22T00:52:36;22.95;;;10.52;;
65896;SDS011;52677;50.898;10.854;2022-11-22T00:54:36;27.15;;;13.57;;
65896;SDS011;52677;50.898;10.854;2022-11-22T00:56:36;33.70;;;15.25;;
65896;SDS011;52677;50.898;10.854;2022-11-22T00:58:37;20.17;;;9.27;;
65896;SDS011;52677;50.898;10.854;2022-11-22T01:00:37;19.77;;;9.93;;
65896;SDS011;52677;50.898;10.854;2022-11-22T01:02:37;15.15;;;8.38;;
65896;SDS011;52677;50.898;10.854;2022-11-22T01:04:38;17.92;;;9.32;;
65896;SDS011;52677;50.898;10.854;2022-11-22T01:06:38;15.48;;;7.45;;
65896;SDS011;52677;50.898;10.854;2022-11-22T01:08:38;14.80;;;6.60;;
65896;SDS011;52677;50.898;10.854;2022-11-22T01:10:39;10.45;;;6.05;;
65896;SDS011;52677;50.898;10.854;2022-11-22T01:12:39;11.52;;;5.60;;
65896;SDS011;52677;50.898;10.854;2022-11-22T01:14:39;11.25;;;5.50;;
65896;SDS011;52677;50.898;10.854;2022-11-22T01:16:40;13.63;;;7.47;;
65896;SDS011;52677;50.898;10.854;2022-11-22T01:18:41;42.33;;;19.00;;
65896;SDS011;52677;50.898;10.854;2022-11-22T01:20:41;32.30;;;14.23;;
65896;SDS011;52677;50.898;10.854;2022-11-22T01:22:42;24.00;;;11.07;;
65896;SDS011;52677;50.898;10.854;2022-11-22T01:24:42;29.67;;;13.40;;
65896;SDS011;52677;50.898;10.854;2022-11-22T01:26:43;27.35;;;11.93;;
65896;SDS011;52677;50.898;10.854;2022-11-22T01:28:43;17.40;;;9.02;;
65896;SDS011;52677;50.898;10.854;2022-11-22T01:30:43;20.73;;;8.85;;
65896;SDS011;52677;50.898;10.854;2022-11-22T01:32:44;16.90;;;8.90;;
65896;SDS011;52677;50.898;10.854;2022-11-22T01:34:44;14.95;;;7.22;;
65896;SDS011;52677;50.898;10.854;2022-11-22T01:36:46;13.27;;;7.07;;
65896;SDS011;52677;50.898;10.854;2022-11-22T01:38:47;12.23;;;7.00;;
65896;SDS011;52677;50.898;10.854;2022-11-22T01:40:47;11.82;;;7.15;;
65896;SDS011;52677;50.898;10.854;2022-11-22T01:42:49;13.95;;;6.93;;
65896;SDS011;52677;50.898;10.854;2022-11-22T01:44:49;11.23;;;6.18;;
65896;SDS011;52677;50.898;10.854;2022-11-22T01:48:55;14.85;;;6.43;;
65896;SDS011;52677;50.898;10.854;2022-11-22T01:51:14;9.25;;;5.95;;
65896;SDS011;52677;50.898;10.854;2022-11-22T01:53:23;8.27;;;5.18;;
65896;SDS011;52677;50.898;10.854;2022-11-22T01:55:27;9.40;;;4.97;;
65896;SDS011;52677;50.898;10.854;2022-11-22T01:57:29;9.15;;;5.28;;
65896;SDS011;52677;50.898;10.854;2022-11-22T01:59:32;9.82;;;4.43;;
65896;SDS011;52677;50.898;10.854;2022-11-22T02:01:34;7.55;;;5.10;;
65896;SDS011;52677;50.898;10.854;2022-11-22T02:03:35;8.23;;;4.75;;
65896;SDS011;52677;50.898;10.854;2022-11-22T02:05:40;7.88;;;4.72;;
65896;SDS011;52677;50.898;10.854;2022-11-22T02:07:42;7.95;;;5.05;;
65896;SDS011;52677;50.898;10.854;2022-11-22T02:10:00;9.45;;;4.43;;
65896;SDS011;52677;50.898;10.854;2022-11-22T02:12:03;6.35;;;4.50;;
65896;SDS011;52677;50.898;10.854;2022-11-22T02:14:05;9.10;;;4.55;;
65896;SDS011;52677;50.898;10.854;2022-11-22T02:16:08;7.45;;;4.15;;
65896;SDS011;52677;50.898;10.854;2022-11-22T02:18:10;7.33;;;4.50;;
65896;SDS011;52677;50.898;10.854;2022-11-22T02:20:10;9.93;;;4.65;;
65896;SDS011;52677;50.898;10.854;2022-11-22T02:22:29;8.88;;;4.38;;
65896;SDS011;52677;50.898;10.854;2022-11-22T02:24:36;7.35;;;4.22;;
65896;SDS011;52677;50.898;10.854;2022-11-22T02:26:41;7.18;;;4.50;;
65896;SDS011;52677;50.898;10.854;2022-11-22T02:28:41;10.73;;;4.13;;
65896;SDS011;52677;50.898;10.854;2022-11-22T02:30:42;6.35;;;3.83;;
65896;SDS011;52677;50.898;10.854;2022-11-22T02:32:43;8.25;;;4.63;;
65896;SDS011;52677;50.898;10.854;2022-11-22T02:34:44;6.28;;;4.45;;
65896;SDS011;52677;50.898;10.854;2022-11-22T02:36:48;7.75;;;4.25;;
65896;SDS011;52677;50.898;10.854;2022-11-22T02:38:50;6.25;;;4.07;;
65896;SDS011;52677;50.898;10.854;2022-11-22T02:40:52;6.55;;;4.15;;
65896;SDS011;52677;50.898;10.854;2022-11-22T02:43:01;6.00;;;3.97;;
65896;SDS011;52677;50.898;10.854;2022-11-22T02:45:04;6.90;;;3.70;;
65896;SDS011;52677;50.898;10.854;2022-11-22T02:47:04;6.82;;;4.13;;
65896;SDS011;52677;50.898;10.854;2022-11-22T02:49:04;7.45;;;4.38;;
65896;SDS011;52677;50.898;10.854;2022-11-22T02:51:05;5.57;;;4.03;;
65896;SDS011;52677;50.898;10.854;2022-11-22T02:53:06;7.70;;;4.22;;
65896;SDS011;52677;50.898;10.854;2022-11-22T02:55:07;7.30;;;4.30;;
65896;SDS011;52677;50.898;10.854;2022-11-22T02:57:08;7.57;;;4.30;;
65896;SDS011;52677;50.898;10.854;2022-11-22T02:59:08;7.75;;;4.55;;
65896;SDS011;52677;50.898;10.854;2022-11-22T03:01:09;10.88;;;5.60;;
65896;SDS011;52677;50.898;10.854;2022-11-22T03:03:11;8.18;;;4.72;;
65896;SDS011;52677;50.898;10.854;2022-11-22T03:05:11;10.55;;;4.75;;
65896;SDS011;52677;50.898;10.854;2022-11-22T03:07:11;6.93;;;4.57;;
65896;SDS011;52677;50.898;10.854;2022-11-22T03:09:12;7.65;;;4.80;;
65896;SDS011;52677;50.898;10.854;2022-11-22T03:11:12;10.25;;;6.15;;
65896;SDS011;52677;50.898;10.854;2022-11-22T03:13:12;9.48;;;5.55;;
65896;SDS011;52677;50.898;10.854;2022-11-22T03:15:12;8.13;;;5.20;;
65896;SDS011;52677;50.898;10.854;2022-11-22T03:17:13;8.73;;;5.55;;
65896;SDS011;52677;50.898;10.854;2022-11-22T03:19:13;12.18;;;5.63;;
65896;SDS011;52677;50.898;10.854;2022-11-22T03:21:14;7.43;;;5.07;;
65896;SDS011;52677;50.898;10.854;2022-11-22T03:23:14;8.20;;;5.30;;
65896;SDS011;52677;50.898;10.854;2022-11-22T03:25:14;12.38;;;5.50;;
65896;SDS011;52677;50.898;10.854;2022-11-22T03:27:15;7.78;;;5.15;;
65896;SDS011;52677;50.898;10.854;2022-11-22T03:29:16;11.70;;;5.43;;
65896;SDS011;52677;50.898;10.854;2022-11-22T03:31:16;9.95;;;4.75;;
65896;SDS011;52677;50.898;10.854;2022-11-22T03:33:17;7.63;;;4.65;;
65896;SDS011;52677;50.898;10.854;2022-11-22T03:35:17;9.95;;;5.57;;
65896;SDS011;52677;50.898;10.854;2022-11-22T03:37:17;7.95;;;4.95;;
65896;SDS011;52677;50.898;10.854;2022-11-22T03:39:18;11.77;;;5.63;;
65896;SDS011;52677;50.898;10.854;2022-11-22T03:41:18;7.50;;;4.63;;
65896;SDS011;52677;50.898;10.854;2022-11-22T03:43:19;9.70;;;5.13;;
65896;SDS011;52677;50.898;10.854;2022-11-22T03:45:19;10.63;;;5.88;;
65896;SDS011;52677;50.898;10.854;2022-11-22T03:47:20;12.52;;;6.88;;
65896;SDS011;52677;50.898;10.854;2022-11-22T03:49:20;11.05;;;6.85;;
65896;SDS011;52677;50.898;10.854;2022-11-22T03:51:20;13.82;;;6.75;;
65896;SDS011;52677;50.898;10.854;2022-11-22T03:53:21;11.18;;;6.65;;
65896;SDS011;52677;50.898;10.854;2022-11-22T03:55:22;10.32;;;6.35;;
65896;SDS011;52677;50.898;10.854;2022-11-22T03:57:22;11.23;;;6.15;;
65896;SDS011;52677;50.898;10.854;2022-11-22T03:59:22;9.30;;;5.55;;
65896;SDS011;52677;50.898;10.854;2022-11-22T04:01:23;9.68;;;5.45;;
65896;SDS011;52677;50.898;10.854;2022-11-22T04:03:23;11.90;;;6.28;;
65896;SDS011;52677;50.898;10.854;2022-11-22T04:05:24;15.25;;;8.20;;
65896;SDS011;52677;50.898;10.854;2022-11-22T04:07:25;12.23;;;7.40;;
65896;SDS011;52677;50.898;10.854;2022-11-22T04:09:25;11.75;;;6.65;;
65896;SDS011;52677;50.898;10.854;2022-11-22T04:11:26;10.93;;;6.78;;
65896;SDS011;52677;50.898;10.854;2022-11-22T04:13:26;12.98;;;7.22;;
65896;SDS011;52677;50.898;10.854;2022-11-22T04:15:47;10.18;;;6.30;;
65896;SDS011;52677;50.898;10.854;2022-11-22T04:17:47;11.82;;;6.25;;
65896;SDS011;52677;50.898;10.854;2022-11-22T04:19:47;10.80;;;5.47;;
65896;SDS011;52677;50.898;10.854;2022-11-22T04:22:16;10.23;;;5.95;;
65896;SDS011;52677;50.898;10.854;2022-11-22T04:24:17;9.98;;;5.93;;
65896;SDS011;52677;50.898;10.854;2022-11-22T04:26:36;9.88;;;5.85;;
65896;SDS011;52677;50.898;10.854;2022-11-22T04:28:36;11.25;;;5.65;;
65896;SDS011;52677;50.898;10.854;2022-11-22T04:30:37;8.85;;;5.13;;
65896;SDS011;52677;50.898;10.854;2022-11-22T04:32:55;9.77;;;6.03;;
65896;SDS011;52677;50.898;10.854;2022-11-22T04:34:56;10.15;;;5.55;;
65896;SDS011;52677;50.898;10.854;2022-11-22T04:36:56;9.48;;;6.07;;
65896;SDS011;52677;50.898;10.854;2022-11-22T04:38:56;9.13;;;6.05;;
65896;SDS011;52677;50.898;10.854;2022-11-22T04:40:57;11.50;;;6.05;;
65896;SDS011;52677;50.898;10.854;2022-11-22T04:42:57;9.50;;;5.55;;
65896;SDS011;52677;50.898;10.854;2022-11-22T04:45:17;9.93;;;6.60;;
65896;SDS011;52677;50.898;10.854;2022-11-22T04:47:17;8.52;;;5.63;;
65896;SDS011;52677;50.898;10.854;2022-11-22T04:49:36;10.48;;;6.28;;
65896;SDS011;52677;50.898;10.854;2022-11-22T04:51:37;8.25;;;5.65;;
65896;SDS011;52677;50.898;10.854;2022-11-22T04:53:56;9.48;;;5.85;;
65896;SDS011;52677;50.898;10.854;2022-11-22T04:55:56;9.88;;;6.32;;
65896;SDS011;52677;50.898;10.854;2022-11-22T04:57:56;10.60;;;5.40;;
65896;SDS011;52677;50.898;10.854;2022-11-22T04:59:57;10.10;;;5.88;;
65896;SDS011;52677;50.898;10.854;2022-11-22T05:01:57;7.85;;;5.15;;
65896;SDS011;52677;50.898;10.854;2022-11-22T05:03:57;10.32;;;5.35;;
65896;SDS011;52677;50.898;10.854;2022-11-22T05:06:01;8.52;;;4.85;;
65896;SDS011;52677;50.898;10.854;2022-11-22T05:08:03;9.35;;;6.10;;
65896;SDS011;52677;50.898;10.854;2022-11-22T05:10:04;11.82;;;5.93;;
65896;SDS011;52677;50.898;10.854;2022-11-22T05:12:05;9.13;;;5.80;;
65896;SDS011;52677;50.898;10.854;2022-11-22T05:14:05;8.50;;;5.55;;
65896;SDS011;52677;50.898;10.854;2022-11-22T05:16:06;9.95;;;5.57;;
65896;SDS011;52677;50.898;10.854;2022-11-22T05:18:09;8.93;;;5.40;;
65896;SDS011;52677;50.898;10.854;2022-11-22T05:20:10;9.75;;;5.10;;
65896;SDS011;52677;50.898;10.854;2022-11-22T05:22:10;10.02;;;4.80;;
65896;SDS011;52677;50.898;10.854;2022-11-22T05:24:11;7.22;;;5.05;;
65896;SDS011;52677;50.898;10.854;2022-11-22T05:26:11;9.35;;;5.35;;
65896;SDS011;52677;50.898;10.854;2022-11-22T05:28:11;8.32;;;5.25;;
65896;SDS011;52677;50.898;10.854;2022-11-22T05:30:12;7.53;;;4.95;;
65896;SDS011;52677;50.898;10.854;2022-11-22T05:32:12;8.27;;;4.88;;
65896;SDS011;52677;50.898;10.854;2022-11-22T05:34:12;9.02;;;4.93;;
65896;SDS011;52677;50.898;10.854;2022-11-22T05:36:13;9.45;;;5.00;;
65896;SDS011;52677;50.898;10.854;2022-11-22T05:38:13;8.93;;;4.60;;
65896;SDS011;52677;50.898;10.854;2022-11-22T05:40:14;6.18;;;4.13;;
65896;SDS011;52677;50.898;10.854;2022-11-22T05:42:14;8.60;;;5.18;;
65896;SDS011;52677;50.898;10.854;2022-11-22T05:44:15;6.40;;;4.80;;
65896;SDS011;52677;50.898;10.854;2022-11-22T05:46:19;9.98;;;6.15;;
65896;SDS011;52677;50.898;10.854;2022-11-22T05:48:20;15.65;;;9.50;;
65896;SDS011;52677;50.898;10.854;2022-11-22T05:50:21;10.43;;;6.68;;
65896;SDS011;52677;50.898;10.854;2022-11-22T05:52:21;8.77;;;6.35;;
65896;SDS011;52677;50.898;10.854;2022-11-22T05:54:21;10.25;;;7.53;;
65896;SDS011;52677;50.898;10.854;2022-11-22T05:56:22;8.02;;;6.30;;
65896;SDS011;52677;50.898;10.854;2022-11-22T05:58:23;16.92;;;7.60;;
65896;SDS011;52677;50.898;10.854;2022-11-22T06:00:23;15.80;;;6.53;;
65896;SDS011;52677;50.898;10.854;2022-11-22T06:02:24;9.10;;;5.85;;
65896;SDS011;52677;50.898;10.854;2022-11-22T06:04:24;8.20;;;5.60;;
65896;SDS011;52677;50.898;10.854;2022-11-22T06:06:25;9.80;;;5.50;;
65896;SDS011;52677;50.898;10.854;2022-11-22T06:08:27;9.30;;;5.75;;
65896;SDS011;52677;50.898;10.854;2022-11-22T06:10:32;9.00;;;5.30;;
65896;SDS011;52677;50.898;10.854;2022-11-22T06:12:36;8.05;;;4.90;;
65896;SDS011;52677;50.898;10.854;2022-11-22T06:14:36;7.70;;;4.68;;
65896;SDS011;52677;50.898;10.854;2022-11-22T06:16:37;7.78;;;5.25;;
65896;SDS011;52677;50.898;10.854;2022-11-22T06:18:37;7.68;;;4.82;;
65896;SDS011;52677;50.898;10.854;2022-11-22T06:20:38;11.52;;;6.13;;
65896;SDS011;52677;50.898;10.854;2022-11-22T06:22:38;12.70;;;5.88;;
65896;SDS011;52677;50.898;10.854;2022-11-22T06:24:39;12.10;;;6.05;;
65896;SDS011;52677;50.898;10.854;2022-11-22T06:26:39;11.25;;;5.35;;
65896;SDS011;52677;50.898;10.854;2022-11-22T06:28:39;10.40;;;5.35;;
65896;SDS011;52677;50.898;10.854;2022-11-22T06:30:40;11.23;;;6.88;;
65896;SDS011;52677;50.898;10.854;2022-11-22T06:32:40;7.80;;;5.45;;
65896;SDS011;52677;50.898;10.854;2022-11-22T06:34:40;10.98;;;5.53;;
65896;SDS011;52677;50.898;10.854;2022-11-22T06:36:41;10.32;;;5.95;;
65896;SDS011;52677;50.898;10.854;2022-11-22T06:38:41;12.25;;;6.95;;
65896;SDS011;52677;50.898;10.854;2022-11-22T06:40:43;9.83;;;5.50;;
65896;SDS011;52677;50.898;10.854;2022-11-22T06:42:43;12.10;;;6.07;;
65896;SDS011;52677;50.898;10.854;2022-11-22T06:44:43;10.38;;;5.43;;
65896;SDS011;52677;50.898;10.854;2022-11-22T06:46:44;9.73;;;6.13;;
65896;SDS011;52677;50.898;10.854;2022-11-22T06:48:44;9.98;;;5.43;;
65896;SDS011;52677;50.898;10.854;2022-11-22T06:50:45;13.63;;;6.28;;
65896;SDS011;52677;50.898;10.854;2022-11-22T06:52:51;8.50;;;5.05;;
65896;SDS011;52677;50.898;10.854;2022-11-22T06:54:52;7.70;;;4.57;;
65896;SDS011;52677;50.898;10.854;2022-11-22T06:56:52;8.32;;;5.03;;
65896;SDS011;52677;50.898;10.854;2022-11-22T06:58:53;6.70;;;4.28;;
65896;SDS011;52677;50.898;10.854;2022-11-22T07:03:01;6.18;;;4.00;;
65896;SDS011;52677;50.898;10.854;2022-11-22T07:05:02;9.00;;;4.60;;
65896;SDS011;52677;50.898;10.854;2022-11-22T07:07:02;8.20;;;4.70;;
65896;SDS011;52677;50.898;10.854;2022-11-22T07:09:07;7.93;;;4.63;;
65896;SDS011;52677;50.898;10.854;2022-11-22T07:11:10;8.80;;;5.05;;
65896;SDS011;52677;50.898;10.854;2022-11-22T07:13:11;12.30;;;4.57;;
65896;SDS011;52677;50.898;10.854;2022-11-22T07:15:12;7.72;;;4.78;;
65896;SDS011;52677;50.898;10.854;2022-11-22T07:17:12;10.88;;;5.45;;
65896;SDS011;52677;50.898;10.854;2022-11-22T07:19:12;10.20;;;5.03;;
65896;SDS011;52677;50.898;10.854;2022-11-22T07:21:15;8.10;;;5.43;;
65896;SDS011;52677;50.898;10.854;2022-11-22T07:23:17;17.52;;;7.68;;
65896;SDS011;52677;50.898;10.854;2022-11-22T07:25:18;41.60;;;20.33;;
65896;SDS011;52677;50.898;10.854;2022-11-22T07:27:18;35.45;;;15.75;;
65896;SDS011;52677;50.898;10.854;2022-11-22T07:29:19;35.53;;;16.48;;
65896;SDS011;52677;50.898;10.854;2022-11-22T07:31:19;46.75;;;19.02;;
65896;SDS011;52677;50.898;10.854;2022-11-22T07:33:20;57.80;;;20.35;;
65896;SDS011;52677;50.898;10.854;2022-11-22T07:35:20;46.30;;;17.42;;
65896;SDS011;52677;50.898;10.854;2022-11-22T07:37:20;43.08;;;18.98;;
65896;SDS011;52677;50.898;10.854;2022-11-22T07:39:21;46.08;;;17.73;;
65896;SDS011;52677;50.898;10.854;2022-11-22T07:41:21;28.08;;;13.23;;
65896;SDS011;52677;50.898;10.854;2022-11-22T07:43:21;32.05;;;13.77;;
65896;SDS011;52677;50.898;10.854;2022-11-22T07:45:22;24.98;;;12.57;;
65896;SDS011;52677;50.898;10.854;2022-11-22T07:47:22;18.13;;;11.85;;
65896;SDS011;52677;50.898;10.854;2022-11-22T07:49:22;24.98;;;11.63;;
65896;SDS011;52677;50.898;10.854;2022-11-22T07:51:23;23.80;;;11.02;;
65896;SDS011;52677;50.898;10.854;2022-11-22T07:53:24;22.77;;;11.25;;
65896;SDS011;52677;50.898;10.854;2022-11-22T07:55:24;21.45;;;10.95;;
65896;SDS011;52677;50.898;10.854;2022-11-22T07:57:26;37.17;;;16.30;;
65896;SDS011;52677;50.898;10.854;2022-11-22T07:59:26;41.40;;;17.55;;
65896;SDS011;52677;50.898;10.854;2022-11-22T08:01:26;40.33;;;20.48;;
65896;SDS011;52677;50.898;10.854;2022-11-22T08:03:27;50.25;;;24.05;;
65896;SDS011;52677;50.898;10.854;2022-11-22T08:05:27;51.65;;;24.95;;
65896;SDS011;52677;50.898;10.854;2022-11-22T08:07:27;51.42;;;22.40;;
65896;SDS011;52677;50.898;10.854;2022-11-22T08:09:28;59.63;;;26.80;;
65896;SDS011;52677;50.898;10.854;2022-11-22T08:11:28;39.70;;;17.77;;
65896;SDS011;52677;50.898;10.854;2022-11-22T08:13:29;20.23;;;11.02;;
65896;SDS011;52677;50.898;10.854;2022-11-22T08:15:30;28.35;;;12.32;;
65896;SDS011;52677;50.898;10.854;2022-11-22T08:17:31;32.78;;;14.85;;
65896;SDS011;52677;50.898;10.854;2022-11-22T08:19:31;37.08;;;17.90;;
65896;SDS011;52677;50.898;10.854;2022-11-22T08:21:34;34.10;;;17.00;;
65896;SDS011;52677;50.898;10.854;2022-11-22T08:23:35;30.52;;;13.18;;
65896;SDS011;52677;50.898;10.854;2022-11-22T08:25:36;28.10;;;13.40;;
65896;SDS011;52677;50.898;10.854;2022-11-22T08:27:39;19.02;;;10.23;;
65896;SDS011;52677;50.898;10.854;2022-11-22T08:29:41;22.05;;;11.27;;
65896;SDS011;52677;50.898;10.854;2022-11-22T08:31:41;13.85;;;7.15;;
65896;SDS011;52677;50.898;10.854;2022-11-22T08:33:42;16.60;;;8.82;;
65896;SDS011;52677;50.898;10.854;2022-11-22T08:35:42;16.08;;;6.18;;
65896;SDS011;52677;50.898;10.854;2022-11-22T08:37:42;13.65;;;6.65;;
65896;SDS011;52677;50.898;10.854;2022-11-22T08:39:43;8.27;;;5.05;;
65896;SDS011;52677;50.898;10.854;2022-11-22T08:41:43;11.13;;;6.43;;
65896;SDS011;52677;50.898;10.854;2022-11-22T08:43:43;14.85;;;7.13;;
65896;SDS011;52677;50.898;10.854;2022-11-22T08:45:44;11.85;;;5.72;;
65896;SDS011;52677;50.898;10.854;2022-11-22T08:47:44;10.15;;;5.65;;
65896;SDS011;52677;50.898;10.854;2022-11-22T08:49:44;10.52;;;5.28;;
65896;SDS011;52677;50.898;10.854;2022-11-22T08:51:45;12.73;;;5.18;;
65896;SDS011;52677;50.898;10.854;2022-11-22T08:53:45;8.32;;;5.28;;
65896;SDS011;52677;50.898;10.854;2022-11-22T08:55:46;16.17;;;8.60;;
65896;SDS011;52677;50.898;10.854;2022-11-22T08:57:46;18.30;;;10.77;;
65896;SDS011;52677;50.898;10.854;2022-11-22T08:59:47;18.90;;;10.90;;
65896;SDS011;52677;50.898;10.854;2022-11-22T09:01:47;19.60;;;10.27;;
65896;SDS011;52677;50.898;10.854;2022-11-22T09:03:47;19.52;;;8.93;;
65896;SDS011;52677;50.898;10.854;2022-11-22T09:05:48;13.05;;;7.82;;
65896;SDS011;52677;50.898;10.854;2022-11-22T09:07:48;12.43;;;7.63;;
65896;SDS011;52677;50.898;10.854;2022-11-22T09:09:49;11.95;;;6.60;;
65896;SDS011;52677;50.898;10.854;2022-11-22T09:11:49;12.88;;;6.68;;
65896;SDS011;52677;50.898;10.854;2022-11-22T09:13:49;11.32;;;5.97;;
65896;SDS011;52677;50.898;10.854;2022-11-22T09:15:49;10.65;;;5.65;;
65896;SDS011;52677;50.898;10.854;2022-11-22T09:17:50;9.02;;;5.57;;
65896;SDS011;52677;50.898;10.854;2022-11-22T09:19:50;8.18;;;4.97;;
65896;SDS011;52677;50.898;10.854;2022-11-22T09:21:50;9.05;;;5.13;;
65896;SDS011;52677;50.898;10.854;2022-11-22T09:23:51;98.50;;;25.35;;
65896;SDS011;52677;50.898;10.854;2022-11-22T09:25:57;72.82;;;21.60;;
65896;SDS011;52677;50.898;10.854;2022-11-22T09:28:01;42.33;;;14.10;;
65896;SDS011;52677;50.898;10.854;2022-11-22T09:30:02;36.67;;;12.38;;
65896;SDS011;52677;50.898;10.854;2022-11-22T09:32:03;47.90;;;14.30;;
65896;SDS011;52677;50.898;10.854;2022-11-22T09:34:03;30.33;;;11.02;;
65896;SDS011;52677;50.898;10.854;2022-11-22T09:36:04;23.17;;;9.77;;
65896;SDS011;52677;50.898;10.854;2022-11-22T09:38:10;14.10;;;6.50;;
65896;SDS011;52677;50.898;10.854;2022-11-22T09:40:10;16.95;;;5.53;;
65896;SDS011;52677;50.898;10.854;2022-11-22T09:42:26;10.50;;;5.47;;
65896;SDS011;52677;50.898;10.854;2022-11-22T09:51:20;21.98;;;9.70;;
65896;SDS011;52677;50.898;10.854;2022-11-22T09:55:59;23.67;;;11.90;;
65896;SDS011;52677;50.898;10.854;2022-11-22T10:00:23;18.92;;;12.18;;
65896;SDS011;52677;50.898;10.854;2022-11-22T10:02:31;19.52;;;11.60;;
65896;SDS011;52677;50.898;10.854;2022-11-22T10:04:39;15.50;;;10.40;;
65896;SDS011;52677;50.898;10.854;2022-11-22T10:06:45;15.40;;;10.02;;
65896;SDS011;52677;50.898;10.854;2022-11-22T10:13:38;9.35;;;7.53;;
65896;SDS011;52677;50.898;10.854;2022-11-22T10:15:48;9.85;;;7.38;;
65896;SDS011;52677;50.898;10.854;2022-11-22T10:20:21;10.88;;;8.40;;
65896;SDS011;52677;50.898;10.854;2022-11-22T10:22:22;18.52;;;10.48;;
65896;SDS011;52677;50.898;10.854;2022-11-22T10:24:24;10.65;;;9.57;;
65896;SDS011;52677;50.898;10.854;2022-11-22T10:26:25;12.27;;;7.70;;
65896;SDS011;52677;50.898;10.854;2022-11-22T10:28:35;10.25;;;6.57;;
65896;SDS011;52677;50.898;10.854;2022-11-22T10:30:43;9.30;;;4.97;;
65896;SDS011;52677;50.898;10.854;2022-11-22T10:34:09;12.95;;;7.18;;
65896;SDS011;52677;50.898;10.854;2022-11-22T10:35:49;11.85;;;6.72;;
65896;SDS011;52677;50.898;10.854;2022-11-22T10:40:23;9.38;;;5.40;;
65896;SDS011;52677;50.898;10.854;2022-11-22T10:56:52;6.50;;;3.03;;
65896;SDS011;52677;50.898;10.854;2022-11-22T11:00:01;7.05;;;3.45;;
65896;SDS011;52677;50.898;10.854;2022-11-22T11:01:46;5.03;;;2.60;;
65896;SDS011;52677;50.898;10.854;2022-11-22T11:04:00;9.93;;;3.60;;
65896;SDS011;52677;50.898;10.854;2022-11-22T11:08:15;5.13;;;2.70;;
65896;SDS011;52677;50.898;10.854;2022-11-22T11:10:20;5.82;;;3.03;;
65896;SDS011;52677;50.898;10.854;2022-11-22T11:12:31;5.18;;;2.58;;
65896;SDS011;52677;50.898;10.854;2022-11-22T11:14:43;5.50;;;2.80;;
65896;SDS011;52677;50.898;10.854;2022-11-22T11:16:47;8.00;;;3.25;;
65896;SDS011;52677;50.898;10.854;2022-11-22T11:18:50;10.27;;;7.78;;
65896;SDS011;52677;50.898;10.854;2022-11-22T11:20:55;13.85;;;10.45;;
65896;SDS011;52677;50.898;10.854;2022-11-22T11:22:56;23.48;;;17.23;;
65896;SDS011;52677;50.898;10.854;2022-11-22T11:24:56;15.77;;;8.45;;
65896;SDS011;52677;50.898;10.854;2022-11-22T11:27:28;12.02;;;6.97;;
65896;SDS011;52677;50.898;10.854;2022-11-22T11:29:31;18.80;;;7.38;;
65896;SDS011;52677;50.898;10.854;2022-11-22T11:33:47;8.27;;;3.50;;
65896;SDS011;52677;50.898;10.854;2022-11-22T11:35:48;5.78;;;3.72;;
65896;SDS011;52677;50.898;10.854;2022-11-22T11:37:51;10.52;;;3.60;;
65896;SDS011;52677;50.898;10.854;2022-11-22T11:39:51;5.55;;;3.42;;
65896;SDS011;52677;50.898;10.854;2022-11-22T11:41:52;8.95;;;2.97;;
65896;SDS011;52677;50.898;10.854;2022-11-22T11:43:54;11.05;;;3.35;;
65896;SDS011;52677;50.898;10.854;2022-11-22T11:45:57;5.93;;;3.20;;
65896;SDS011;52677;50.898;10.854;2022-11-22T11:48:34;7.57;;;3.15;;
65896;SDS011;52677;50.898;10.854;2022-11-22T11:50:42;6.10;;;2.20;;
65896;SDS011;52677;50.898;10.854;2022-11-22T11:52:47;15.15;;;2.97;;
65896;SDS011;52677;50.898;10.854;2022-11-22T11:54:57;8.52;;;2.58;;
65896;SDS011;52677;50.898;10.854;2022-11-22T11:57:02;5.85;;;2.20;;
65896;SDS011;52677;50.898;10.854;2022-11-22T11:59:10;4.57;;;2.92;;
65896;SDS011;52677;50.898;10.854;2022-11-22T12:01:18;8.88;;;2.33;;
65896;SDS011;52677;50.898;10.854;2022-11-22T12:03:19;7.63;;;2.47;;
65896;SDS011;52677;50.898;10.854;2022-11-22T12:05:30;8.25;;;3.83;;
65896;SDS011;52677;50.898;10.854;2022-11-22T12:09:35;9.20;;;3.08;;
65896;SDS011;52677;50.898;10.854;2022-11-22T12:11:44;4.03;;;2.75;;
65896;SDS011;52677;50.898;10.854;2022-11-22T12:13:52;7.28;;;2.60;;
65896;SDS011;52677;50.898;10.854;2022-11-22T12:15:56;4.82;;;2.60;;
65896;SDS011;52677;50.898;10.854;2022-11-22T12:23:23;7.25;;;3.15;;
65896;SDS011;52677;50.898;10.854;2022-11-22T12:25:32;5.28;;;2.30;;
65896;SDS011;52677;50.898;10.854;2022-11-22T12:27:35;6.82;;;2.50;;
65896;SDS011;52677;50.898;10.854;2022-11-22T12:29:36;3.83;;;2.17;;
65896;SDS011;52677;50.898;10.854;2022-11-22T12:36:45;12.32;;;2.70;;
65896;SDS011;52677;50.898;10.854;2022-11-22T12:38:49;7.15;;;2.70;;
65896;SDS011;52677;50.898;10.854;2022-11-22T12:40:53;6.75;;;2.80;;
65896;SDS011;52677;50.898;10.854;2022-11-22T12:42:56;8.27;;;2.38;;
65896;SDS011;52677;50.898;10.854;2022-11-22T12:45:11;9.15;;;2.80;;
65896;SDS011;52677;50.898;10.854;2022-11-22T12:47:23;7.15;;;3.03;;
65896;SDS011;52677;50.898;10.854;2022-11-22T12:49:38;3.85;;;2.63;;
65896;SDS011;52677;50.898;10.854;2022-11-22T12:51:55;9.43;;;2.95;;
65896;SDS011;52677;50.898;10.854;2022-11-22T13:05:24;9.32;;;3.25;;
65896;SDS011;52677;50.898;10.854;2022-11-22T13:09:50;9.63;;;4.78;;
65896;SDS011;52677;50.898;10.854;2022-11-22T13:14:11;7.13;;;3.30;;